createdAt,value
2023-06-07T00:00:49.626Z,990.145
2023-06-07T00:02:50.189Z,990.065
2023-06-07T00:04:50.055Z,990.106
2023-06-07T00:06:49.753Z,990.127
2023-06-07T00:08:49.394Z,990.047
2023-06-07T00:10:49.990Z,990.147
2023-06-07T00:12:49.563Z,990.177
2023-06-07T00:14:50.138Z,990.171
2023-06-07T00:16:49.708Z,990.194
2023-06-07T00:18:50.280Z,990.086
2023-06-07T00:20:50.000Z,990.127
2023-06-07T00:22:49.584Z,990.116
2023-06-07T00:24:49.436Z,990.129
2023-06-07T00:26:50.135Z,990.100
2023-06-07T00:28:49.721Z,990.068
2023-06-07T00:30:50.309Z,990.044
2023-06-07T00:32:49.938Z,990.170
2023-06-07T00:34:49.606Z,990.142
2023-06-07T00:36:50.217Z,990.077
2023-06-07T00:38:49.800Z,990.067
2023-06-07T00:40:49.417Z,990.068
2023-06-07T00:42:49.986Z,989.997
2023-06-07T00:44:49.573Z,990.077
2023-06-07T00:46:50.254Z,990.022
2023-06-07T00:48:49.894Z,990.036
2023-06-07T00:50:49.554Z,990.081
2023-06-07T00:52:50.157Z,990.045
2023-06-07T00:54:49.733Z,989.945
2023-06-07T00:56:49.394Z,990.005
2023-06-07T00:58:49.931Z,990.082
2023-06-07T01:00:49.515Z,989.993
2023-06-07T01:02:50.135Z,989.985
2023-06-07T01:04:49.826Z,989.970
2023-06-07T01:06:49.521Z,990.011
2023-06-07T01:08:50.065Z,990.090
2023-06-07T01:10:49.603Z,990.002
2023-06-07T01:12:50.214Z,989.933
2023-06-07T01:14:49.810Z,989.951
2023-06-07T01:16:49.725Z,989.922
2023-06-07T01:18:49.452Z,989.953
2023-06-07T01:20:50.073Z,989.898
2023-06-07T01:22:49.696Z,989.942
2023-06-07T01:24:50.246Z,989.889
2023-06-07T01:26:49.846Z,990.003
2023-06-07T01:28:49.455Z,989.946
2023-06-07T01:30:50.046Z,989.944
2023-06-07T01:32:49.655Z,990.006
2023-06-07T01:34:49.412Z,989.962
2023-06-07T01:36:49.974Z,989.818
2023-06-07T01:38:49.582Z,989.851
2023-06-07T01:40:50.164Z,989.844
2023-06-07T01:42:49.871Z,989.788
2023-06-07T01:44:49.449Z,989.749
2023-06-07T01:46:50.122Z,989.698
2023-06-07T01:48:49.824Z,989.773
2023-06-07T01:50:49.363Z,989.721
2023-06-07T01:52:49.975Z,989.688
2023-06-07T01:54:49.516Z,989.755
2023-06-07T01:56:50.082Z,989.703
2023-06-07T01:58:49.648Z,989.750
2023-06-07T02:00:50.170Z,989.741
2023-06-07T02:02:49.792Z,989.733
2023-06-07T02:04:49.399Z,989.740
2023-06-07T02:06:49.981Z,989.776
2023-06-07T02:08:49.585Z,989.721
2023-06-07T02:10:50.155Z,989.737
2023-06-07T02:12:49.754Z,989.725
2023-06-07T02:14:49.364Z,989.725
2023-06-07T02:16:50.028Z,989.625
2023-06-07T02:18:49.605Z,989.663
2023-06-07T02:20:50.170Z,989.789
2023-06-07T02:22:49.753Z,989.721
2023-06-07T02:24:49.398Z,989.723
2023-06-07T02:26:49.971Z,989.767
2023-06-07T02:28:49.550Z,989.724
2023-06-07T02:30:50.160Z,989.709
2023-06-07T02:32:49.917Z,989.736
2023-06-07T02:34:49.625Z,989.765
2023-06-07T02:36:50.267Z,989.758
2023-06-07T02:38:49.814Z,989.776
2023-06-07T02:40:49.419Z,989.754
2023-06-07T02:42:49.979Z,989.780
2023-06-07T02:44:49.520Z,989.807
2023-06-07T02:46:50.240Z,989.933
2023-06-07T02:48:49.950Z,989.851
2023-06-07T02:50:49.559Z,989.851
2023-06-07T02:52:50.159Z,989.890
2023-06-07T02:54:49.741Z,989.838
2023-06-07T02:56:50.285Z,989.931
2023-06-07T02:58:49.869Z,989.931
2023-06-07T03:00:49.427Z,989.824
2023-06-07T03:02:50.027Z,989.824
2023-06-07T03:04:49.691Z,989.814
2023-06-07T03:06:50.266Z,989.770
2023-06-07T03:08:49.833Z,989.881
2023-06-07T03:10:49.480Z,989.794
2023-06-07T03:12:50.041Z,989.935
2023-06-07T03:14:49.535Z,989.881
2023-06-07T03:16:50.286Z,989.862
2023-06-07T03:18:49.891Z,989.885
2023-06-07T03:20:49.416Z,989.892
2023-06-07T03:22:50.024Z,989.883
2023-06-07T03:24:49.537Z,989.815
2023-06-07T03:26:50.138Z,989.879
2023-06-07T03:28:49.777Z,989.858
2023-06-07T03:30:49.386Z,989.843
2023-06-07T03:32:50.013Z,990.002
2023-06-07T03:34:49.640Z,989.891
2023-06-07T03:36:50.343Z,989.919
2023-06-07T03:38:49.935Z,989.879
2023-06-07T03:40:49.557Z,989.812
2023-06-07T03:42:50.215Z,989.924
2023-06-07T03:44:49.853Z,989.822
2023-06-07T03:46:49.391Z,989.890
2023-06-07T03:48:52.757Z,989.938
2023-06-07T03:50:49.883Z,989.854
2023-06-07T03:52:49.494Z,989.881
2023-06-07T03:54:50.115Z,989.851
2023-06-07T03:56:49.721Z,989.930
2023-06-07T03:58:50.301Z,989.930
2023-06-07T04:00:49.942Z,989.879
2023-06-07T04:02:49.613Z,989.896
2023-06-07T04:04:50.388Z,989.944
2023-06-07T04:06:50.090Z,989.925
2023-06-07T04:08:49.650Z,989.915
2023-06-07T04:10:50.206Z,989.974
2023-06-07T04:12:49.929Z,989.919
2023-06-07T04:14:49.507Z,989.989
2023-06-07T04:16:50.151Z,989.896
2023-06-07T04:18:49.781Z,989.975
2023-06-07T04:20:49.345Z,990.028
2023-06-07T04:22:49.911Z,989.977
2023-06-07T04:24:49.505Z,989.977
2023-06-07T04:26:50.094Z,989.996
2023-06-07T04:28:49.654Z,989.978
2023-06-07T04:30:50.232Z,990.020
2023-06-07T04:32:49.919Z,990.020
2023-06-07T04:34:49.689Z,990.100
2023-06-07T04:36:50.305Z,990.109
2023-06-07T04:38:57.999Z,990.099
2023-06-07T04:40:49.492Z,990.149
2023-06-07T04:42:49.990Z,990.122
2023-06-07T04:44:49.582Z,990.110
2023-06-07T04:46:50.209Z,990.124
2023-06-07T04:48:49.818Z,990.101
2023-06-07T04:50:49.389Z,990.131
2023-06-07T04:52:49.917Z,990.163
2023-06-07T04:54:49.513Z,990.115
2023-06-07T04:56:50.085Z,990.103
2023-06-07T04:58:49.670Z,990.165
2023-06-07T05:00:50.223Z,990.208
2023-06-07T05:02:49.835Z,990.133
2023-06-07T05:04:49.528Z,990.219
2023-06-07T05:06:50.123Z,990.205
2023-06-07T05:08:49.716Z,990.256
2023-06-07T05:10:50.300Z,990.130
2023-06-07T05:12:49.907Z,990.166
2023-06-07T05:14:49.531Z,990.296
2023-06-07T05:16:50.161Z,990.072
2023-06-07T05:18:49.926Z,990.279
2023-06-07T05:20:49.570Z,990.255
2023-06-07T05:22:50.116Z,990.219
2023-06-07T05:24:49.662Z,990.274
2023-06-07T05:26:50.269Z,990.233
2023-06-07T05:28:49.927Z,990.256
2023-06-07T05:30:49.483Z,990.227
2023-06-07T05:32:50.088Z,990.362
2023-06-07T05:34:49.762Z,990.323
2023-06-07T05:36:49.370Z,990.341
2023-06-07T05:38:49.939Z,990.313
2023-06-07T05:40:49.563Z,990.364
2023-06-07T05:42:50.378Z,990.375
2023-06-07T05:44:49.941Z,990.345
2023-06-07T05:46:49.569Z,990.322
2023-06-07T05:48:50.181Z,990.342
2023-06-07T05:50:49.757Z,990.393
2023-06-07T05:52:49.530Z,990.380
2023-06-07T05:54:50.141Z,990.385
2023-06-07T05:56:50.513Z,990.451
2023-06-07T05:58:49.600Z,990.394
2023-06-07T06:00:50.168Z,990.373
2023-06-07T06:02:49.936Z,990.342
2023-06-07T06:04:49.644Z,990.454
2023-06-07T06:06:50.206Z,990.504
2023-06-07T06:08:49.858Z,990.438
2023-06-07T06:10:49.449Z,990.312
2023-06-07T06:12:50.108Z,990.466
2023-06-07T06:14:49.633Z,990.435
2023-06-07T06:16:50.243Z,990.464
2023-06-07T06:18:49.921Z,990.420
2023-06-07T06:20:49.449Z,990.455
2023-06-07T06:22:50.065Z,990.516
2023-06-07T06:24:49.655Z,990.516
2023-06-07T06:26:50.226Z,990.420
2023-06-07T06:28:49.861Z,990.451
2023-06-07T06:30:49.456Z,990.498
2023-06-07T06:32:52.466Z,990.540
2023-06-07T06:34:50.078Z,990.575
2023-06-07T06:36:49.594Z,990.538
2023-06-07T06:38:50.218Z,990.521
2023-06-07T06:40:49.717Z,990.521
2023-06-07T06:42:50.301Z,990.489
2023-06-07T06:44:49.978Z,990.569
2023-06-07T06:46:49.573Z,990.551
2023-06-07T06:49:02.745Z,990.551
2023-06-07T06:50:49.668Z,990.593
2023-06-07T06:52:50.266Z,990.607
2023-06-07T06:54:49.752Z,990.575
2023-06-07T06:56:49.381Z,990.658
2023-06-07T06:58:49.946Z,990.570
2023-06-07T07:00:49.510Z,990.626
2023-06-07T07:02:50.152Z,990.638
2023-06-07T07:04:49.819Z,990.663
2023-06-07T07:06:49.395Z,990.677
2023-06-07T07:08:50.011Z,990.662
2023-06-07T07:10:49.601Z,990.693
2023-06-07T07:12:50.156Z,990.667
2023-06-07T07:14:49.782Z,990.742
2023-06-07T07:16:50.512Z,990.684
2023-06-07T07:18:50.129Z,990.715
2023-06-07T07:20:49.728Z,990.754
2023-06-07T07:22:50.269Z,990.761
2023-06-07T07:24:49.813Z,990.803
2023-06-07T07:26:49.388Z,990.734
2023-06-07T07:28:49.978Z,990.786
2023-06-07T07:30:49.563Z,990.731
2023-06-07T07:32:50.138Z,990.774
2023-06-07T07:34:49.837Z,990.696
2023-06-07T07:36:49.552Z,990.742
2023-06-07T07:38:50.139Z,990.746
2023-06-07T07:40:49.781Z,990.732
2023-06-07T07:42:50.289Z,990.725
2023-06-07T07:44:49.900Z,990.734
2023-06-07T07:46:49.599Z,990.709
2023-06-07T07:48:50.226Z,990.719
2023-06-07T07:50:49.959Z,990.732
2023-06-07T07:52:49.619Z,990.705
2023-06-07T07:54:50.138Z,990.743
2023-06-07T07:56:49.821Z,990.708
2023-06-07T07:58:49.371Z,990.719
2023-06-07T08:00:49.915Z,990.648
2023-06-07T08:02:49.694Z,990.712
2023-06-07T08:04:49.464Z,990.644
2023-06-07T08:06:50.172Z,990.640
2023-06-07T08:08:49.779Z,990.571
2023-06-07T08:10:50.346Z,990.509
2023-06-07T08:12:49.966Z,990.624
2023-06-07T08:14:49.579Z,990.599
2023-06-07T08:16:50.249Z,990.490
2023-06-07T08:18:49.921Z,990.512
2023-06-07T08:20:49.544Z,990.533
2023-06-07T08:22:50.241Z,990.551
2023-06-07T08:24:49.799Z,990.551
2023-06-07T08:26:49.402Z,990.539
2023-06-07T08:28:50.017Z,990.574
2023-06-07T08:30:49.558Z,990.589
2023-06-07T08:32:50.196Z,990.574
2023-06-07T08:34:49.916Z,990.619
2023-06-07T08:36:49.567Z,990.728
2023-06-07T08:38:50.156Z,990.603
2023-06-07T08:40:49.772Z,990.590
2023-06-07T08:42:49.378Z,990.569
2023-06-07T08:44:49.965Z,990.615
2023-06-07T08:46:49.559Z,990.615
2023-06-07T08:48:50.128Z,990.652
2023-06-07T08:50:49.754Z,990.615
2023-06-07T08:52:49.408Z,990.539
2023-06-07T08:54:49.994Z,990.580
2023-06-07T08:56:49.566Z,990.629
2023-06-07T08:58:50.213Z,990.656
2023-06-07T09:00:49.977Z,990.661
2023-06-07T09:02:49.713Z,990.619
2023-06-07T09:04:49.429Z,990.685
2023-06-07T09:06:50.041Z,990.614
2023-06-07T09:08:49.615Z,990.610
2023-06-07T09:10:50.226Z,990.572
2023-06-07T09:12:49.842Z,990.694
2023-06-07T09:14:49.378Z,990.691
2023-06-07T09:16:50.054Z,990.677
2023-06-07T09:18:49.734Z,990.670
2023-06-07T09:20:49.426Z,990.674
2023-06-07T09:22:50.060Z,990.685
2023-06-07T09:24:49.615Z,990.633
2023-06-07T09:26:50.188Z,990.684
2023-06-07T09:28:49.820Z,990.621
2023-06-07T09:30:49.384Z,990.684
2023-06-07T09:32:50.009Z,990.670
2023-06-07T09:34:52.103Z,990.680
2023-06-07T09:36:50.181Z,990.704
2023-06-07T09:38:49.867Z,990.573
2023-06-07T09:40:49.426Z,990.615
2023-06-07T09:42:49.954Z,990.593
2023-06-07T09:44:49.572Z,990.657
2023-06-07T09:46:50.288Z,990.619
2023-06-07T09:48:50.033Z,990.636
2023-06-07T09:50:49.796Z,990.633
2023-06-07T09:52:49.525Z,990.623
2023-06-07T09:54:50.038Z,990.601
2023-06-07T09:56:49.739Z,990.644
2023-06-07T09:58:49.422Z,990.576
2023-06-07T10:00:49.974Z,990.622
2023-06-07T10:02:49.731Z,990.512
2023-06-07T10:04:49.499Z,990.579
2023-06-07T10:06:50.168Z,990.528
2023-06-07T10:08:49.804Z,990.510
2023-06-07T10:10:49.419Z,990.493
2023-06-07T10:12:49.991Z,990.480
2023-06-07T10:14:49.524Z,990.447
2023-06-07T10:16:50.161Z,990.477
2023-06-07T10:18:49.820Z,990.558
2023-06-07T10:20:49.495Z,990.390
2023-06-07T10:22:50.075Z,990.340
2023-06-07T10:24:49.774Z,990.404
2023-06-07T10:26:49.445Z,990.362
2023-06-07T10:28:50.141Z,990.363
2023-06-07T10:30:49.752Z,990.257
2023-06-07T10:32:50.294Z,990.206
2023-06-07T10:34:49.953Z,990.292
2023-06-07T10:36:49.598Z,990.259
2023-06-07T10:38:50.203Z,990.265
2023-06-07T10:40:49.778Z,990.248
2023-06-07T10:42:50.299Z,990.332
2023-06-07T10:44:49.909Z,990.286
2023-06-07T10:46:52.169Z,990.310
2023-06-07T10:48:49.962Z,990.245
2023-06-07T10:50:49.490Z,990.256
2023-06-07T10:52:50.124Z,990.248
2023-06-07T10:54:49.719Z,990.325
2023-06-07T10:56:49.365Z,990.231
2023-06-07T10:58:50.030Z,990.197
2023-06-07T11:00:49.563Z,990.213
2023-06-07T11:02:50.379Z,990.214
2023-06-07T11:04:50.273Z,990.259
2023-06-07T11:06:50.109Z,990.198
2023-06-07T11:08:49.648Z,990.240
2023-06-07T11:10:50.201Z,990.283
2023-06-07T11:12:49.776Z,990.247
2023-06-07T11:14:50.316Z,990.322
2023-06-07T11:16:49.953Z,990.371
2023-06-07T11:18:49.641Z,990.346
2023-06-07T11:20:50.213Z,990.333
2023-06-07T11:22:49.795Z,990.362
2023-06-07T11:24:49.398Z,990.389
2023-06-07T11:26:50.037Z,990.391
2023-06-07T11:28:49.687Z,990.384
2023-06-07T11:30:50.213Z,990.384
2023-06-07T11:32:49.821Z,990.425
2023-06-07T11:34:49.679Z,990.398
2023-06-07T11:36:49.388Z,990.363
2023-06-07T11:38:49.930Z,990.403
2023-06-07T11:40:49.435Z,990.438
2023-06-07T11:42:50.019Z,990.315
2023-06-07T11:44:49.617Z,990.384
2023-06-07T11:46:50.302Z,990.333
2023-06-07T11:48:50.057Z,990.304
2023-06-07T11:50:49.852Z,990.294
2023-06-07T11:52:49.349Z,990.238
2023-06-07T11:54:49.941Z,990.231
2023-06-07T11:56:49.529Z,990.225
2023-06-07T11:58:50.086Z,990.208
2023-06-07T12:00:49.721Z,990.242
2023-06-07T12:02:50.320Z,990.129
2023-06-07T12:04:50.150Z,990.154
2023-06-07T12:06:49.896Z,990.151
2023-06-07T12:08:49.406Z,990.104
2023-06-07T12:10:49.996Z,990.073
2023-06-07T12:12:49.558Z,990.073
2023-06-07T12:14:50.073Z,990.083
2023-06-07T12:16:49.726Z,990.121
2023-06-07T12:18:50.304Z,990.093
2023-06-07T12:20:49.840Z,990.049
2023-06-07T12:22:49.441Z,990.078
2023-06-07T12:24:50.027Z,990.059
2023-06-07T12:26:49.568Z,990.056
2023-06-07T12:28:50.190Z,989.966
2023-06-07T12:30:49.784Z,990.054
2023-06-07T12:32:49.415Z,990.030
2023-06-07T12:34:50.150Z,989.984
2023-06-07T12:36:49.771Z,989.984
2023-06-07T12:38:49.453Z,989.900
2023-06-07T12:40:50.215Z,989.861
2023-06-07T12:42:49.885Z,989.790
2023-06-07T12:44:49.553Z,989.799
2023-06-07T12:46:50.255Z,989.833
2023-06-07T12:48:49.982Z,989.790
2023-06-07T12:50:49.541Z,989.757
2023-06-07T12:52:50.321Z,989.736
2023-06-07T12:54:49.864Z,989.758
2023-06-07T12:56:49.504Z,989.770
2023-06-07T12:58:50.190Z,989.757
2023-06-07T13:00:49.773Z,989.695
2023-06-07T13:02:49.570Z,989.697
2023-06-07T13:04:50.327Z,989.715
2023-06-07T13:06:50.044Z,989.715
2023-06-07T13:08:49.660Z,989.604
2023-06-07T13:10:50.218Z,989.569
2023-06-07T13:12:49.783Z,989.556
2023-06-07T13:14:50.358Z,989.560
2023-06-07T13:16:50.096Z,989.558
2023-06-07T13:18:49.837Z,989.537
2023-06-07T13:20:49.542Z,989.551
2023-06-07T13:22:50.148Z,989.525
2023-06-07T13:24:49.954Z,989.525
2023-06-07T13:26:49.552Z,989.491
2023-06-07T13:28:50.168Z,989.456
2023-06-07T13:30:49.771Z,989.481
2023-06-07T13:32:50.339Z,989.451
2023-06-07T13:34:50.061Z,989.386
2023-06-07T13:36:49.642Z,989.399
2023-06-07T13:38:49.345Z,989.399
2023-06-07T13:40:49.968Z,989.340
2023-06-07T13:42:49.496Z,989.368
2023-06-07T13:44:50.038Z,989.462
2023-06-07T13:46:49.689Z,989.449
2023-06-07T13:48:50.325Z,989.439
2023-06-07T13:50:49.922Z,989.384
2023-06-07T13:52:49.647Z,989.402
2023-06-07T13:54:50.245Z,989.359
2023-06-07T13:56:49.897Z,989.366
2023-06-07T13:58:49.505Z,989.366
2023-06-07T14:00:50.134Z,989.300
2023-06-07T14:02:49.841Z,989.345
2023-06-07T14:04:49.947Z,989.196
2023-06-07T14:06:49.562Z,989.292
2023-06-07T14:08:50.136Z,989.195
2023-06-07T14:10:49.786Z,989.129
2023-06-07T14:12:49.363Z,989.155
2023-06-07T14:14:49.960Z,989.122
2023-06-07T14:16:49.757Z,989.040
2023-06-07T14:18:49.379Z,989.028
2023-06-07T14:20:49.952Z,988.949
2023-06-07T14:22:49.543Z,988.997
2023-06-07T14:24:50.183Z,988.892
2023-06-07T14:26:49.888Z,988.995
2023-06-07T14:28:49.535Z,988.881
2023-06-07T14:30:50.179Z,988.863
2023-06-07T14:32:49.776Z,988.893
2023-06-07T14:34:49.459Z,988.984
2023-06-07T14:36:50.117Z,989.029
2023-06-07T14:38:49.717Z,988.949
2023-06-07T14:40:50.217Z,989.054
2023-06-07T14:42:49.810Z,988.975
2023-06-07T14:44:49.494Z,988.926
2023-06-07T14:46:50.051Z,988.933
2023-06-07T14:48:49.628Z,988.947
2023-06-07T14:50:50.253Z,988.890
2023-06-07T14:52:49.809Z,988.893
2023-06-07T14:54:49.397Z,988.941
2023-06-07T14:56:50.011Z,988.924
2023-06-07T14:58:49.610Z,988.927
2023-06-07T15:00:50.216Z,988.899
2023-06-07T15:02:49.902Z,988.953
2023-06-07T15:04:49.599Z,988.942
2023-06-07T15:06:50.195Z,988.846
2023-06-07T15:08:49.849Z,988.899
2023-06-07T15:10:49.407Z,988.891
2023-06-07T15:12:50.075Z,988.854
2023-06-07T15:14:49.670Z,988.771
2023-06-07T15:16:50.315Z,988.733
2023-06-07T15:18:49.857Z,988.706
2023-06-07T15:20:49.417Z,988.645
2023-06-07T15:22:50.025Z,988.650
2023-06-07T15:24:49.686Z,988.672
2023-06-07T15:26:50.265Z,988.605
2023-06-07T15:28:49.900Z,988.599
2023-06-07T15:30:49.497Z,988.550
2023-06-07T15:32:50.146Z,988.519
2023-06-07T15:34:49.904Z,988.519
2023-06-07T15:36:49.520Z,988.573
2023-06-07T15:38:50.094Z,988.626
2023-06-07T15:40:49.689Z,988.564
2023-06-07T15:42:50.201Z,988.497
2023-06-07T15:44:49.838Z,988.561
2023-06-07T15:46:49.613Z,988.730
2023-06-07T15:48:50.224Z,988.730
2023-06-07T15:50:49.792Z,988.624
2023-06-07T15:52:49.422Z,988.694
2023-06-07T15:54:49.982Z,988.660
2023-06-07T15:56:49.644Z,988.670
2023-06-07T15:58:53.061Z,988.554
2023-06-07T16:00:50.129Z,988.523
2023-06-07T16:02:49.785Z,988.505
2023-06-07T16:04:49.462Z,988.401
2023-06-07T16:06:50.153Z,988.472
2023-06-07T16:08:49.764Z,988.541
2023-06-07T16:10:49.342Z,988.454
2023-06-07T16:12:52.415Z,988.455
2023-06-07T16:14:50.201Z,988.486
2023-06-07T16:18:52.038Z,988.450
2023-06-07T16:20:49.640Z,988.478
2023-06-07T16:22:50.233Z,988.433
2023-06-07T16:24:49.893Z,988.313
2023-06-07T16:26:49.550Z,988.353
2023-06-07T16:28:50.133Z,988.377
2023-06-07T16:30:49.762Z,988.361
2023-06-07T16:32:49.518Z,988.376
2023-06-07T16:34:50.184Z,988.399
2023-06-07T16:36:49.908Z,988.367
2023-06-07T16:38:49.525Z,988.361
2023-06-07T16:40:50.071Z,988.505
2023-06-07T16:42:49.730Z,988.416
2023-06-07T16:44:50.342Z,988.386
2023-06-07T16:46:49.975Z,988.386
2023-06-07T16:48:49.566Z,988.435
2023-06-07T16:50:50.149Z,988.392
2023-06-07T16:52:49.767Z,988.411
2023-06-07T16:54:49.387Z,988.417
2023-06-07T16:56:49.960Z,988.417
2023-06-07T16:58:49.533Z,988.330
2023-06-07T17:00:50.135Z,988.371
2023-06-07T17:02:50.003Z,988.452
2023-06-07T17:04:49.748Z,988.406
2023-06-07T17:06:49.375Z,988.399
2023-06-07T17:08:49.926Z,988.367
2023-06-07T17:10:49.581Z,988.518
2023-06-07T17:12:50.208Z,988.491
2023-06-07T17:14:49.922Z,988.405
2023-06-07T17:16:49.531Z,988.461
2023-06-07T17:18:50.170Z,988.414
2023-06-07T17:20:49.771Z,988.533
2023-06-07T17:22:50.350Z,988.464
2023-06-07T17:24:49.938Z,988.440
2023-06-07T17:26:49.611Z,988.467
2023-06-07T17:28:50.148Z,988.391
2023-06-07T17:30:49.727Z,988.393
2023-06-07T17:32:50.351Z,988.359
2023-06-07T17:34:50.006Z,988.330
2023-06-07T17:36:49.647Z,988.380
2023-06-07T17:38:50.211Z,988.389
2023-06-07T17:40:49.799Z,988.371
2023-06-07T17:42:49.392Z,988.340
2023-06-07T17:44:50.024Z,988.440
2023-06-07T17:46:49.769Z,988.362
2023-06-07T17:48:49.400Z,988.388
2023-06-07T17:50:49.981Z,988.349
2023-06-07T17:52:49.522Z,988.381
2023-06-07T17:54:50.146Z,988.391
2023-06-07T17:56:49.662Z,988.324
2023-06-07T17:58:50.233Z,988.341
2023-06-07T18:00:49.822Z,988.353
2023-06-07T18:02:49.483Z,988.322
2023-06-07T18:04:50.182Z,988.417
2023-06-07T18:06:49.763Z,988.311
2023-06-07T18:08:49.424Z,988.318
2023-06-07T18:10:49.999Z,988.287
2023-06-07T18:12:49.611Z,988.314
2023-06-07T18:14:50.140Z,988.401
2023-06-07T18:16:49.715Z,988.366
2023-06-07T18:18:50.291Z,988.341
2023-06-07T18:20:49.916Z,988.345
2023-06-07T18:22:49.502Z,988.362
2023-06-07T18:24:50.074Z,988.435
2023-06-07T18:26:49.707Z,988.416
2023-06-07T18:28:50.324Z,988.415
2023-06-07T18:30:49.932Z,988.429
2023-06-07T18:32:49.606Z,988.345
2023-06-07T18:34:50.334Z,988.360
2023-06-07T18:36:49.924Z,988.347
2023-06-07T18:38:49.478Z,988.383
2023-06-07T18:40:50.089Z,988.333
2023-06-07T18:42:49.732Z,988.312
2023-06-07T18:44:50.311Z,988.288
2023-06-07T18:46:50.091Z,988.248
2023-06-07T18:48:49.699Z,988.319
2023-06-07T18:50:50.281Z,988.262
2023-06-07T18:52:49.829Z,988.313
2023-06-07T18:54:49.426Z,988.386
2023-06-07T18:56:50.038Z,988.332
2023-06-07T18:58:49.610Z,988.335
2023-06-07T19:00:50.197Z,988.346
2023-06-07T19:02:49.908Z,988.372
2023-06-07T19:04:49.843Z,988.424
2023-06-07T19:06:51.784Z,988.373
2023-06-07T19:08:49.722Z,988.386
2023-06-07T19:10:50.360Z,988.350
2023-06-07T19:12:49.912Z,988.344
2023-06-07T19:14:49.505Z,988.334
2023-06-07T19:16:50.125Z,988.380
2023-06-07T19:18:49.740Z,988.368
2023-06-07T19:20:50.278Z,988.356
2023-06-07T19:22:49.860Z,988.466
2023-06-07T19:24:49.508Z,988.479
2023-06-07T19:26:50.038Z,988.566
2023-06-07T19:28:49.637Z,988.512
2023-06-07T19:30:50.343Z,988.517
2023-06-07T19:32:49.989Z,988.441
2023-06-07T19:34:49.714Z,988.518
2023-06-07T19:36:50.341Z,988.585
2023-06-07T19:38:49.913Z,988.604
2023-06-07T19:40:49.473Z,988.561
2023-06-07T19:42:50.117Z,988.604
2023-06-07T19:44:49.644Z,988.660
2023-06-07T19:46:50.390Z,988.585
2023-06-07T19:48:50.122Z,988.610
2023-06-07T19:50:49.765Z,988.697
2023-06-07T19:52:50.344Z,988.654
2023-06-07T19:54:49.943Z,988.649
2023-06-07T19:56:49.557Z,988.652
2023-06-07T19:58:50.190Z,988.607
2023-06-07T20:00:49.736Z,988.656
2023-06-07T20:02:50.303Z,988.597
2023-06-07T20:04:49.933Z,988.615
2023-06-07T20:06:49.484Z,988.620
2023-06-07T20:08:50.037Z,988.609
2023-06-07T20:10:49.592Z,988.558
2023-06-07T20:12:50.190Z,988.642
2023-06-07T20:14:49.692Z,988.651
2023-06-07T20:16:50.296Z,988.653
2023-06-07T20:18:49.961Z,988.607
2023-06-07T20:20:49.506Z,988.656
2023-06-07T20:22:50.145Z,988.702
2023-06-07T20:24:49.823Z,988.758
2023-06-07T20:26:49.430Z,988.736
2023-06-07T20:28:50.037Z,988.828
2023-06-07T20:30:49.572Z,988.865
2023-06-07T20:32:50.233Z,988.843
2023-06-07T20:34:49.960Z,988.877
2023-06-07T20:36:49.599Z,988.908
2023-06-07T20:38:50.152Z,988.787
2023-06-07T20:40:49.763Z,988.823
2023-06-07T20:42:49.466Z,988.811
2023-06-07T20:44:53.857Z,988.832
2023-06-07T20:46:49.813Z,988.773
2023-06-07T20:48:49.462Z,988.779
2023-06-07T20:50:50.072Z,988.772
2023-06-07T20:52:49.687Z,988.835
2023-06-07T20:54:50.314Z,988.812
2023-06-07T20:56:50.056Z,988.793
2023-06-07T20:58:49.617Z,988.803
2023-06-07T21:00:50.219Z,988.729
2023-06-07T21:02:50.026Z,988.840
2023-06-07T21:04:49.701Z,988.754
2023-06-07T21:06:49.362Z,988.754
2023-06-07T21:08:49.958Z,988.828
2023-06-07T21:10:49.553Z,988.768
2023-06-07T21:12:50.178Z,988.828
2023-06-07T21:14:49.801Z,988.789
2023-06-07T21:16:49.480Z,988.866
2023-06-07T21:18:50.134Z,988.851
2023-06-07T21:20:49.745Z,988.856
2023-06-07T21:22:50.325Z,988.859
2023-06-07T21:24:49.967Z,988.932
2023-06-07T21:26:49.558Z,988.910
2023-06-07T21:28:50.161Z,988.980
2023-06-07T21:30:49.768Z,989.005
2023-06-07T21:32:49.484Z,988.937
2023-06-07T21:34:50.180Z,988.980
2023-06-07T21:36:49.780Z,988.943
2023-06-07T21:38:49.382Z,988.933
2023-06-07T21:40:50.052Z,988.906
2023-06-07T21:42:49.670Z,988.850
2023-06-07T21:44:50.338Z,988.941
2023-06-07T21:46:49.999Z,988.977
2023-06-07T21:48:49.555Z,988.977
2023-06-07T21:50:50.190Z,988.916
2023-06-07T21:52:49.780Z,988.911
2023-06-07T21:54:49.392Z,988.896
2023-06-07T21:56:50.086Z,988.896
2023-06-07T21:58:49.718Z,988.884
2023-06-07T22:00:50.316Z,988.863
2023-06-07T22:02:50.014Z,988.877
2023-06-07T22:04:49.911Z,988.885
2023-06-07T22:06:49.646Z,988.899
2023-06-07T22:08:50.229Z,988.923
2023-06-07T22:10:49.849Z,988.957
2023-06-07T22:12:49.415Z,988.954
2023-06-07T22:14:49.987Z,988.857
2023-06-07T22:16:49.561Z,988.920
2023-06-07T22:18:50.209Z,988.866
2023-06-07T22:20:49.839Z,988.863
2023-06-07T22:22:49.395Z,988.759
2023-06-07T22:24:50.029Z,988.760
2023-06-07T22:26:49.577Z,988.835
2023-06-07T22:28:50.114Z,988.792
2023-06-07T22:30:49.684Z,988.800
2023-06-07T22:32:50.324Z,988.740
2023-06-07T22:34:49.986Z,988.801
2023-06-07T22:36:49.536Z,988.749
2023-06-07T22:38:50.137Z,988.729
2023-06-07T22:40:49.676Z,988.774
2023-06-07T22:42:50.209Z,988.824
2023-06-07T22:44:49.828Z,988.752
2023-06-07T22:46:49.569Z,988.735
2023-06-07T22:48:50.250Z,988.741
2023-06-07T22:50:49.822Z,988.754
2023-06-07T22:52:49.471Z,988.781
2023-06-07T22:54:50.137Z,988.781
2023-06-07T22:56:49.710Z,988.739
2023-06-07T22:58:50.267Z,988.734
2023-06-07T23:00:49.967Z,988.696
2023-06-07T23:02:49.655Z,988.667
2023-06-07T23:04:49.408Z,988.626
2023-06-07T23:06:49.997Z,988.658
2023-06-07T23:08:49.536Z,988.663
2023-06-07T23:10:50.173Z,988.680
2023-06-07T23:12:49.790Z,988.691
2023-06-07T23:14:49.381Z,988.708
2023-06-07T23:16:50.090Z,988.590
2023-06-07T23:18:49.709Z,988.615
2023-06-07T23:20:50.263Z,988.696
2023-06-07T23:22:49.938Z,988.667
2023-06-07T23:24:49.620Z,988.667
2023-06-07T23:26:50.353Z,988.538
2023-06-07T23:28:49.937Z,988.575
2023-06-07T23:30:49.534Z,988.627
2023-06-07T23:32:50.191Z,988.563
2023-06-07T23:34:49.913Z,988.592
2023-06-07T23:36:49.500Z,988.584
2023-06-07T23:38:50.128Z,988.576
2023-06-07T23:40:49.727Z,988.569
2023-06-07T23:42:50.340Z,988.628
2023-06-07T23:44:49.921Z,988.621
2023-06-07T23:46:49.539Z,988.543
2023-06-07T23:48:50.126Z,988.558
2023-06-07T23:50:49.737Z,988.515
2023-06-07T23:52:49.356Z,988.623
2023-06-07T23:54:49.975Z,988.583
2023-06-07T23:56:49.526Z,988.526
2023-06-07T23:58:50.135Z,988.571
